Time;durP1;ratioP1;P1;durP2;ratioP2;P2;SDS_P1;SDS_P2;PMS_P1;PMS_P2;Temp;Humidity;BMP_temperature;BMP_pressure;BME280_temperature;BME280_humidity;BME280_pressure;Samples;Min_cycle;Max_cycle;Signal;HPM_P1;HPM_P2
2023/09/10 00:00:06;;;;;;;;;;;120.61;114.10;;;;;;2672844;76;20438;-95
2023/09/10 00:03:39;;;;;;;;;;;120.61;114.10;;;;;;2673434;76;20366;-94
2023/09/10 00:07:04;;;;;;;;;;;120.61;114.10;;;;;;2672375;76;20329;-95
2023/09/10 00:10:33;;;;;;;;;;;120.61;114.10;;;;;;2672452;76;20452;-95
2023/09/10 00:14:05;;;;;;;;;;;120.61;114.10;;;;;;2672853;76;20436;-94
2023/09/10 00:17:35;;;;;;;;;;;120.61;114.10;;;;;;2672693;76;20350;-96
2023/09/10 00:21:11;;;;;;;;;;;120.61;114.10;;;;;;2672862;76;20646;-95
2023/09/10 00:24:41;;;;;;;;;;;120.61;114.10;;;;;;2673495;76;20309;-92
2023/09/10 00:28:24;;;;;;;;;;;120.61;114.10;;;;;;2675243;76;20452;-93
2023/09/10 00:32:04;;;;;;;;;;;120.61;114.10;;;;;;2674289;76;20430;-93
2023/09/10 00:35:35;;;;;;;;;;;120.61;114.10;;;;;;2674434;76;20331;-93
2023/09/10 00:39:08;;;;;;;;;;;120.61;114.10;;;;;;2674099;76;20514;-93
2023/09/10 00:42:39;;;;;;;;;;;120.61;114.10;;;;;;2673953;76;20354;-93
2023/09/10 00:46:07;;;;;;;;;;;120.61;114.10;;;;;;2673315;76;20491;-93
2023/09/10 00:49:37;;;;;;;;;;;120.61;114.10;;;;;;2673190;76;20587;-92
2023/09/10 00:53:13;;;;;;;;;;;120.61;114.10;;;;;;2672828;76;20489;-93
2023/09/10 00:56:45;;;;;;;;;;;120.61;114.10;;;;;;2671230;76;20314;-95
2023/09/10 01:00:13;;;;;;;;;;;120.61;114.10;;;;;;2672301;76;20497;-95
2023/09/10 01:03:42;;;;;;;;;;;120.61;114.10;;;;;;2673355;76;20437;-93
2023/09/10 01:07:11;;;;;;;;;;;120.61;114.10;;;;;;2672909;76;20833;-93
2023/09/10 01:10:57;;;;;;;;;;;120.61;114.10;;;;;;2675038;76;20355;-95
2023/09/10 01:14:17;;;;;;;;;;;120.61;114.10;;;;;;2675297;76;20893;-93
2023/09/10 01:17:48;;;;;;;;;;;120.61;114.10;;;;;;2672299;76;20433;-93
2023/09/10 01:21:17;;;;;;;;;;;120.61;114.10;;;;;;2676522;76;20504;-93
2023/09/10 01:24:54;;;;;;;;;;;120.61;114.10;;;;;;2678904;76;20482;-93
2023/09/10 01:28:24;;;;;;;;;;;120.61;114.10;;;;;;2672614;76;20425;-94
2023/09/10 01:31:52;;;;;;;;;;;120.61;114.10;;;;;;2672284;76;20384;-94
2023/09/10 01:35:25;;;;;;;;;;;120.61;114.10;;;;;;2672210;76;20464;-94
2023/09/10 01:38:53;;;;;;;;;;;120.61;114.10;;;;;;2671885;76;20503;-94
2023/09/10 01:42:24;;;;;;;;;;;120.61;114.10;;;;;;2672016;76;20554;-94
2023/09/10 01:45:53;;;;;;;;;;;120.61;114.10;;;;;;2671497;76;20491;-94
2023/09/10 01:49:24;;;;;;;;;;;120.61;114.10;;;;;;2672051;76;20452;-94
2023/09/10 01:52:51;;;;;;;;;;;120.61;114.10;;;;;;2672122;76;20449;-95
2023/09/10 01:56:20;;;;;;;;;;;120.61;114.10;;;;;;2672013;76;20445;-94
2023/09/10 01:59:48;;;;;;;;;;;120.61;114.10;;;;;;2677153;76;20425;-95
2023/09/10 02:03:29;;;;;;;;;;;120.61;114.10;;;;;;2677418;76;21001;-94
2023/09/10 02:07:11;;;;;;;;;;;120.61;114.10;;;;;;2678918;76;20486;-94
2023/09/10 02:10:43;;;;;;;;;;;120.61;114.10;;;;;;2677382;76;20943;-93
2023/09/10 02:14:17;;;;;;;;;;;120.61;114.10;;;;;;2675650;76;20906;-95
2023/09/10 02:17:45;;;;;;;;;;;120.61;114.10;;;;;;2672143;76;20467;-94
2023/09/10 02:21:16;;;;;;;;;;;120.61;114.10;;;;;;2672106;76;20494;-94
2023/09/10 02:24:50;;;;;;;;;;;120.61;114.10;;;;;;2672464;76;20412;-94
2023/09/10 02:28:21;;;;;;;;;;;120.61;114.10;;;;;;2672437;76;20780;-95
2023/09/10 02:31:49;;;;;;;;;;;120.61;114.10;;;;;;2672423;76;20449;-94
2023/09/10 02:35:20;;;;;;;;;;;120.61;114.10;;;;;;2671785;76;20964;-93
2023/09/10 02:38:50;;;;;;;;;;;120.61;114.10;;;;;;2672451;76;20881;-94
2023/09/10 02:42:19;;;;;;;;;;;120.61;114.10;;;;;;2671892;76;20442;-94
2023/09/10 02:45:50;;;;;;;;;;;120.61;114.10;;;;;;2672429;76;20469;-94
2023/09/10 02:49:21;;;;;;;;;;;120.61;114.10;;;;;;2671466;76;20457;-93
2023/09/10 02:52:49;;;;;;;;;;;120.61;114.10;;;;;;2670706;76;21193;-94
2023/09/10 02:56:17;;;;;;;;;;;120.61;114.10;;;;;;2672927;76;20365;-94
2023/09/10 02:59:45;;;;;;;;;;;120.61;114.10;;;;;;2671689;76;20435;-93
2023/09/10 03:03:13;;;;;;;;;;;120.61;114.10;;;;;;2671617;76;20365;-94
2023/09/10 03:06:41;;;;;;;;;;;120.61;114.10;;;;;;2672215;76;20361;-93
2023/09/10 03:10:10;;;;;;;;;;;120.61;114.10;;;;;;2672334;76;20437;-93
2023/09/10 03:13:38;;;;;;;;;;;120.61;114.10;;;;;;2672213;76;20588;-93
2023/09/10 03:17:06;;;;;;;;;;;120.61;114.10;;;;;;2672787;76;20462;-94
2023/09/10 03:20:34;;;;;;;;;;;120.61;114.10;;;;;;2672118;76;20435;-94
2023/09/10 03:24:02;;;;;;;;;;;120.61;114.10;;;;;;2672518;76;20389;-93
2023/09/10 03:27:38;;;;;;;;;;;120.61;114.10;;;;;;2671971;76;20917;-92
2023/09/10 03:31:06;;;;;;;;;;;120.61;114.10;;;;;;2672205;76;20493;-93
2023/09/10 03:34:34;;;;;;;;;;;120.61;114.10;;;;;;2671970;76;20474;-94
2023/09/10 03:38:02;;;;;;;;;;;120.61;114.10;;;;;;2673907;76;20461;-95
2023/09/10 03:41:34;;;;;;;;;;;120.61;114.10;;;;;;2674908;76;20888;-93
2023/09/10 03:45:05;;;;;;;;;;;120.61;114.10;;;;;;2672926;76;20511;-94
2023/09/10 03:48:33;;;;;;;;;;;120.61;114.10;;;;;;2670947;76;20445;-94
2023/09/10 03:52:02;;;;;;;;;;;120.61;114.10;;;;;;2671222;76;20985;-94
2023/09/10 03:55:30;;;;;;;;;;;120.61;114.10;;;;;;2671959;76;20944;-93
2023/09/10 03:58:58;;;;;;;;;;;120.61;114.10;;;;;;2672684;76;21058;-93
2023/09/10 04:02:29;;;;;;;;;;;120.61;114.10;;;;;;2674076;76;20465;-94
2023/09/10 04:06:11;;;;;;;;;;;120.61;114.10;;;;;;2674640;76;20359;-94
2023/09/10 04:09:37;;;;;;;;;;;120.61;114.10;;;;;;2671292;76;20446;-94
2023/09/10 04:13:05;;;;;;;;;;;120.61;114.10;;;;;;2672220;76;20932;-94
2023/09/10 04:16:33;;;;;;;;;;;120.61;114.10;;;;;;2671926;76;20462;-94
2023/09/10 04:20:07;;;;;;;;;;;120.61;114.10;;;;;;2671805;76;20429;-94
2023/09/10 04:23:31;;;;;;;;;;;120.61;114.10;;;;;;2672011;76;20431;-93
2023/09/10 04:26:59;;;;;;;;;;;120.61;114.10;;;;;;2671713;76;20878;-94
2023/09/10 04:30:27;;;;;;;;;;;120.61;114.10;;;;;;2671929;76;20431;-94
2023/09/10 04:33:55;;;;;;;;;;;120.61;114.10;;;;;;2671963;76;20414;-94
2023/09/10 04:37:24;;;;;;;;;;;120.61;114.10;;;;;;2670645;76;20437;-93
2023/09/10 04:40:52;;;;;;;;;;;120.61;114.10;;;;;;2671980;76;20474;-94
2023/09/10 04:44:20;;;;;;;;;;;120.61;114.10;;;;;;2672339;76;20453;-94
2023/09/10 04:47:48;;;;;;;;;;;120.61;114.10;;;;;;2672505;76;20465;-94
2023/09/10 04:51:16;;;;;;;;;;;120.61;114.10;;;;;;2672100;76;20353;-94
2023/09/10 04:54:45;;;;;;;;;;;120.61;114.10;;;;;;2673087;76;20431;-93
2023/09/10 04:58:13;;;;;;;;;;;120.61;114.10;;;;;;2672676;76;20478;-94
2023/09/10 05:01:44;;;;;;;;;;;120.61;114.10;;;;;;2674124;76;20360;-94
2023/09/10 05:05:15;;;;;;;;;;;120.61;114.10;;;;;;2672033;76;20455;-93
2023/09/10 05:08:55;;;;;;;;;;;120.61;114.10;;;;;;2674054;76;20584;-92
2023/09/10 05:12:23;;;;;;;;;;;120.61;114.10;;;;;;2672485;76;20452;-91
2023/09/10 05:15:54;;;;;;;;;;;120.61;114.10;;;;;;2671791;76;20925;-92
2023/09/10 05:19:24;;;;;;;;;;;120.61;114.10;;;;;;2671836;76;20358;-92
2023/09/10 05:22:59;;;;;;;;;;;120.61;114.10;;;;;;2672030;76;20489;-95
2023/09/10 05:26:26;;;;;;;;;;;120.61;114.10;;;;;;2672732;76;20438;-94
2023/09/10 05:29:56;;;;;;;;;;;120.61;114.10;;;;;;2672991;76;20472;-94
2023/09/10 05:33:24;;;;;;;;;;;120.61;114.10;;;;;;2672715;76;20441;-90
2023/09/10 05:36:52;;;;;;;;;;;120.61;114.10;;;;;;2671700;76;20910;-90
2023/09/10 05:40:21;;;;;;;;;;;120.61;114.10;;;;;;2672001;76;20485;-90
2023/09/10 05:43:49;;;;;;;;;;;120.61;114.10;;;;;;2672099;76;20454;-90
2023/09/10 05:47:19;;;;;;;;;;;120.61;114.10;;;;;;2672930;76;20471;-90
2023/09/10 05:50:47;;;;;;;;;;;120.61;114.10;;;;;;2672076;76;20491;-90
2023/09/10 05:54:15;;;;;;;;;;;120.61;114.10;;;;;;2672996;76;20503;-90
2023/09/10 05:57:43;;;;;;;;;;;120.61;114.10;;;;;;2672127;76;20441;-90
2023/09/10 06:01:11;;;;;;;;;;;120.61;114.10;;;;;;2672764;76;20483;-90
2023/09/10 06:04:39;;;;;;;;;;;120.61;114.10;;;;;;2671538;76;20475;-90
2023/09/10 06:08:07;;;;;;;;;;;120.61;114.10;;;;;;2672507;76;20447;-89
2023/09/10 06:11:36;;;;;;;;;;;120.61;114.10;;;;;;2672065;76;20454;-90
2023/09/10 06:15:04;;;;;;;;;;;120.61;114.10;;;;;;2672381;76;20478;-91
2023/09/10 06:18:34;;;;;;;;;;;120.61;114.10;;;;;;2672575;76;20456;-91
2023/09/10 06:22:02;;;;;;;;;;;120.61;114.10;;;;;;2672208;76;20442;-90
2023/09/10 06:25:30;;;;;;;;;;;120.61;114.10;;;;;;2671628;76;20343;-91
2023/09/10 06:28:59;;;;;;;;;;;120.61;114.10;;;;;;2668251;76;20440;-92
2023/09/10 06:32:27;;;;;;;;;;;120.61;114.10;;;;;;2671842;76;21154;-93
2023/09/10 06:35:55;;;;;;;;;;;120.61;114.10;;;;;;2670723;76;20493;-93
2023/09/10 06:39:23;;;;;;;;;;;120.61;114.10;;;;;;2672483;76;20327;-92
2023/09/10 06:42:54;;;;;;;;;;;120.61;114.10;;;;;;2669812;76;20339;-90
2023/09/10 06:46:21;;;;;;;;;;;120.61;114.10;;;;;;2672208;76;20387;-89
2023/09/10 06:49:53;;;;;;;;;;;120.61;114.10;;;;;;2671777;76;20933;-91
2023/09/10 06:53:24;;;;;;;;;;;120.61;114.10;;;;;;2672600;76;20370;-90
2023/09/10 06:56:52;;;;;;;;;;;120.61;114.10;;;;;;2671224;76;20460;-90
2023/09/10 07:00:20;;;;;;;;;;;120.61;114.10;;;;;;2671071;76;20454;-89
2023/09/10 07:03:48;;;;;;;;;;;120.61;114.10;;;;;;2669977;76;20585;-90
2023/09/10 07:07:16;;;;;;;;;;;120.61;114.10;;;;;;2670414;76;20475;-88
2023/09/10 07:10:45;;;;;;;;;;;120.61;114.10;;;;;;2671849;76;20338;-89
2023/09/10 07:14:13;;;;;;;;;;;120.61;114.10;;;;;;2671405;76;20445;-89
2023/09/10 07:17:41;;;;;;;;;;;120.61;114.10;;;;;;2672020;76;20997;-89
2023/09/10 07:21:10;;;;;;;;;;;120.61;114.10;;;;;;2672152;76;20448;-88
2023/09/10 07:24:38;;;;;;;;;;;120.61;114.10;;;;;;2672255;76;20473;-89
2023/09/10 07:28:06;;;;;;;;;;;120.61;114.10;;;;;;2671569;76;20452;-89
2023/09/10 07:31:34;;;;;;;;;;;120.61;114.10;;;;;;2672157;76;20441;-89
2023/09/10 07:35:02;;;;;;;;;;;120.61;114.10;;;;;;2671453;76;20459;-90
2023/09/10 07:38:31;;;;;;;;;;;120.61;114.10;;;;;;2672951;76;20490;-90
2023/09/10 07:41:59;;;;;;;;;;;120.61;114.10;;;;;;2672553;76;20445;-89
2023/09/10 07:45:27;;;;;;;;;;;120.61;114.10;;;;;;2672772;76;20454;-90
2023/09/10 07:48:55;;;;;;;;;;;120.61;114.10;;;;;;2672654;76;20456;-90
2023/09/10 07:52:23;;;;;;;;;;;120.61;114.10;;;;;;2672162;76;20465;-89
2023/09/10 07:55:51;;;;;;;;;;;120.61;114.10;;;;;;2672510;76;20436;-89
2023/09/10 07:59:19;;;;;;;;;;;120.61;114.10;;;;;;2672854;76;20472;-91
2023/09/10 08:02:48;;;;;;;;;;;120.61;114.10;;;;;;2672583;76;20440;-89
2023/09/10 08:06:16;;;;;;;;;;;120.61;114.10;;;;;;2672271;76;20443;-90
2023/09/10 08:09:44;;;;;;;;;;;120.61;114.10;;;;;;2672753;76;20891;-90
2023/09/10 08:13:15;;;;;;;;;;;120.61;114.10;;;;;;2672505;76;20460;-89
2023/09/10 08:16:44;;;;;;;;;;;120.61;114.10;;;;;;2671800;76;20504;-90
2023/09/10 08:20:12;;;;;;;;;;;120.61;114.10;;;;;;2672702;76;20443;-90
2023/09/10 08:23:42;;;;;;;;;;;120.61;114.10;;;;;;2672996;76;20336;-89
2023/09/10 08:27:10;;;;;;;;;;;120.61;114.10;;;;;;2671375;76;20468;-89
2023/09/10 08:30:38;;;;;;;;;;;120.61;114.10;;;;;;2672410;76;20916;-89
2023/09/10 08:34:06;;;;;;;;;;;120.61;114.10;;;;;;2672196;76;20750;-89
2023/09/10 08:37:35;;;;;;;;;;;120.61;114.10;;;;;;2671988;76;20433;-89
2023/09/10 08:41:03;;;;;;;;;;;120.61;114.10;;;;;;2672675;76;20479;-88
2023/09/10 08:44:31;;;;;;;;;;;120.61;114.10;;;;;;2672765;76;20780;-89
2023/09/10 08:47:59;;;;;;;;;;;120.61;114.10;;;;;;2672390;76;20466;-89
2023/09/10 08:51:27;;;;;;;;;;;120.61;114.10;;;;;;2672697;76;20472;-89
2023/09/10 08:54:56;;;;;;;;;;;120.61;114.10;;;;;;2672417;76;20485;-89
2023/09/10 08:58:24;;;;;;;;;;;120.61;114.10;;;;;;2673035;76;20477;-89
2023/09/10 09:01:52;;;;;;;;;;;120.61;114.10;;;;;;2671231;76;21053;-90
2023/09/10 09:05:21;;;;;;;;;;;120.61;114.10;;;;;;2671815;76;20973;-89
2023/09/10 09:08:49;;;;;;;;;;;120.61;114.10;;;;;;2672375;76;20766;-89
2023/09/10 09:12:17;;;;;;;;;;;120.61;114.10;;;;;;2671964;76;20335;-89
2023/09/10 09:15:45;;;;;;;;;;;120.61;114.10;;;;;;2672154;76;20421;-89
2023/09/10 09:19:13;;;;;;;;;;;120.61;114.10;;;;;;2671561;76;20324;-89
2023/09/10 09:22:45;;;;;;;;;;;120.61;114.10;;;;;;2671490;76;20425;-90
2023/09/10 09:26:14;;;;;;;;;;;120.61;114.10;;;;;;2672549;76;20436;-89
2023/09/10 09:29:45;;;;;;;;;;;120.61;114.10;;;;;;2671846;76;20770;-89
2023/09/10 09:33:13;;;;;;;;;;;120.61;114.10;;;;;;2672391;76;20447;-90
2023/09/10 09:36:42;;;;;;;;;;;120.61;114.10;;;;;;2672360;76;20444;-89
2023/09/10 09:40:10;;;;;;;;;;;120.61;114.10;;;;;;2672657;76;20322;-89
2023/09/10 09:43:39;;;;;;;;;;;120.61;114.10;;;;;;2673200;76;20347;-90
2023/09/10 09:47:07;;;;;;;;;;;120.61;114.10;;;;;;2671403;76;20448;-89
2023/09/10 09:50:35;;;;;;;;;;;120.61;114.10;;;;;;2668569;76;20483;-90
2023/09/10 09:54:06;;;;;;;;;;;120.61;114.10;;;;;;2669852;76;20870;-89
2023/09/10 09:57:34;;;;;;;;;;;120.61;114.10;;;;;;2670012;76;20959;-89
2023/09/10 10:01:02;;;;;;;;;;;120.61;114.10;;;;;;2670261;76;20487;-89
2023/09/10 10:04:30;;;;;;;;;;;120.61;114.10;;;;;;2670356;76;20451;-90
2023/09/10 10:07:59;;;;;;;;;;;120.61;114.10;;;;;;2670136;76;20468;-88
2023/09/10 10:11:28;;;;;;;;;;;120.61;114.10;;;;;;2670647;76;20469;-89
2023/09/10 10:14:56;;;;;;;;;;;120.61;114.10;;;;;;2670947;76;20488;-90
2023/09/10 10:18:26;;;;;;;;;;;120.61;114.10;;;;;;2670068;76;20915;-89
2023/09/10 10:21:54;;;;;;;;;;;120.61;114.10;;;;;;2670185;76;20399;-89
2023/09/10 10:25:22;;;;;;;;;;;120.61;114.10;;;;;;2670574;76;20418;-90
2023/09/10 10:28:52;;;;;;;;;;;120.61;114.10;;;;;;2669650;76;20500;-89
2023/09/10 10:32:21;;;;;;;;;;;120.61;114.10;;;;;;2673173;76;20408;-89
2023/09/10 10:35:49;;;;;;;;;;;120.61;114.10;;;;;;2670459;76;20450;-90
2023/09/10 10:39:22;;;;;;;;;;;120.61;114.10;;;;;;2670338;76;20433;-89
2023/09/10 10:42:47;;;;;;;;;;;120.61;114.10;;;;;;2670609;76;20493;-89
2023/09/10 10:46:18;;;;;;;;;;;120.61;114.10;;;;;;2670602;76;20409;-90
2023/09/10 10:49:50;;;;;;;;;;;120.61;114.10;;;;;;2670328;76;20511;-90
2023/09/10 10:53:19;;;;;;;;;;;120.61;114.10;;;;;;2670793;76;20464;-89
2023/09/10 10:56:47;;;;;;;;;;;120.61;114.10;;;;;;2671047;76;20357;-88
2023/09/10 11:00:18;;;;;;;;;;;120.61;114.10;;;;;;2670786;76;20470;-89
2023/09/10 11:03:48;;;;;;;;;;;120.61;114.10;;;;;;2671242;76;20460;-90
2023/09/10 11:07:20;;;;;;;;;;;120.61;114.10;;;;;;2671406;76;20469;-89
2023/09/10 11:10:48;;;;;;;;;;;120.61;114.10;;;;;;2671863;76;20480;-89
2023/09/10 11:14:18;;;;;;;;;;;120.61;114.10;;;;;;2671281;76;20679;-90
2023/09/10 11:17:47;;;;;;;;;;;120.61;114.10;;;;;;2669991;76;20841;-89
2023/09/10 11:21:16;;;;;;;;;;;120.61;114.10;;;;;;2670347;76;20462;-89
2023/09/10 11:24:47;;;;;;;;;;;120.61;114.10;;;;;;2670291;76;20814;-89
2023/09/10 11:28:18;;;;;;;;;;;120.61;114.10;;;;;;2670356;76;20731;-89
2023/09/10 11:31:46;;;;;;;;;;;120.61;114.10;;;;;;2670026;76;20439;-89
2023/09/10 11:35:15;;;;;;;;;;;120.61;114.10;;;;;;2670565;76;20434;-89
2023/09/10 11:38:45;;;;;;;;;;;120.61;114.10;;;;;;2670654;76;20990;-89
2023/09/10 11:42:13;;;;;;;;;;;120.61;114.10;;;;;;2670344;76;20454;-90
2023/09/10 11:45:41;;;;;;;;;;;120.61;114.10;;;;;;2669542;76;20477;-89
2023/09/10 11:49:12;;;;;;;;;;;120.61;114.10;;;;;;2669603;76;20385;-89
2023/09/10 11:52:43;;;;;;;;;;;120.61;114.10;;;;;;2669392;76;20920;-89
2023/09/10 11:56:11;;;;;;;;;;;120.61;114.10;;;;;;2667892;76;20460;-88
2023/09/10 11:59:40;;;;;;;;;;;120.61;114.10;;;;;;2669429;76;20507;-89
2023/09/10 12:03:08;;;;;;;;;;;120.61;114.10;;;;;;2669604;76;20387;-90
2023/09/10 12:06:38;;;;;;;;;;;120.61;114.10;;;;;;2668764;76;20446;-89
2023/09/10 12:10:07;;;;;;;;;;;120.61;114.10;;;;;;2669245;76;20539;-88
2023/09/10 12:13:39;;;;;;;;;;;120.61;114.10;;;;;;2669473;76;20470;-89
2023/09/10 12:17:07;;;;;;;;;;;120.61;114.10;;;;;;2669310;76;20424;-89
2023/09/10 12:20:35;;;;;;;;;;;120.61;114.10;;;;;;2669846;76;20454;-89
2023/09/10 12:24:03;;;;;;;;;;;120.61;114.10;;;;;;2669571;76;20389;-89
2023/09/10 12:27:32;;;;;;;;;;;120.61;114.10;;;;;;2668555;76;20465;-89
2023/09/10 12:31:00;;;;;;;;;;;120.61;114.10;;;;;;2669481;76;20492;-89
2023/09/10 12:34:32;;;;;;;;;;;120.61;114.10;;;;;;2669408;76;20451;-89
2023/09/10 12:38:03;;;;;;;;;;;120.61;114.10;;;;;;2669330;76;21278;-89
2023/09/10 12:41:30;;;;;;;;;;;120.61;114.10;;;;;;2669634;76;20451;-89
2023/09/10 12:45:01;;;;;;;;;;;120.61;114.10;;;;;;2668874;76;20488;-90
2023/09/10 12:48:39;;;;;;;;;;;120.61;114.10;;;;;;2668806;76;20459;-88
2023/09/10 12:52:10;;;;;;;;;;;120.61;114.10;;;;;;2669198;76;20430;-89
2023/09/10 12:55:38;;;;;;;;;;;120.61;114.10;;;;;;2668916;76;20345;-89
2023/09/10 12:59:09;;;;;;;;;;;120.61;114.10;;;;;;2670312;76;20480;-89
2023/09/10 13:02:38;;;;;;;;;;;120.61;114.10;;;;;;2668766;76;20915;-90
2023/09/10 13:06:06;;;;;;;;;;;120.61;114.10;;;;;;2670150;76;20459;-89
2023/09/10 13:09:34;;;;;;;;;;;120.61;114.10;;;;;;2671317;76;20422;-89
2023/09/10 13:13:08;;;;;;;;;;;120.61;114.10;;;;;;2671779;76;20466;-88
2023/09/10 13:16:39;;;;;;;;;;;120.61;114.10;;;;;;2669828;76;20344;-90
2023/09/10 13:20:10;;;;;;;;;;;120.61;114.10;;;;;;2671293;76;20513;-88
2023/09/10 13:23:37;;;;;;;;;;;120.61;114.10;;;;;;2669060;76;20482;-90
2023/09/10 13:27:05;;;;;;;;;;;120.61;114.10;;;;;;2669577;76;21181;-89
2023/09/10 13:30:33;;;;;;;;;;;120.61;114.10;;;;;;2670921;76;20318;-89
2023/09/10 13:34:02;;;;;;;;;;;120.61;114.10;;;;;;2670214;76;20475;-89
2023/09/10 13:37:30;;;;;;;;;;;120.61;114.10;;;;;;2669161;76;20328;-90
2023/09/10 13:40:58;;;;;;;;;;;120.61;114.10;;;;;;2670115;76;20368;-89
2023/09/10 13:44:31;;;;;;;;;;;120.61;114.10;;;;;;2670134;76;20486;-90
2023/09/10 13:47:59;;;;;;;;;;;120.61;114.10;;;;;;2669624;76;20418;-88
2023/09/10 13:51:27;;;;;;;;;;;120.61;114.10;;;;;;2669647;76;20464;-89
2023/09/10 13:55:00;;;;;;;;;;;120.61;114.10;;;;;;2668392;76;20532;-89
2023/09/10 13:58:28;;;;;;;;;;;120.61;114.10;;;;;;2669919;76;20429;-89
2023/09/10 14:01:59;;;;;;;;;;;120.61;114.10;;;;;;2670221;76;20450;-90
2023/09/10 14:05:27;;;;;;;;;;;120.61;114.10;;;;;;2670693;76;20440;-89
2023/09/10 14:08:55;;;;;;;;;;;120.61;114.10;;;;;;2669950;76;20428;-90
2023/09/10 14:12:24;;;;;;;;;;;120.61;114.10;;;;;;2670219;76;20424;-89
2023/09/10 14:15:56;;;;;;;;;;;120.61;114.10;;;;;;2669675;76;20440;-89
2023/09/10 14:19:24;;;;;;;;;;;120.61;114.10;;;;;;2669797;76;20439;-89
2023/09/10 14:22:53;;;;;;;;;;;120.61;114.10;;;;;;2669282;76;20436;-89
2023/09/10 14:26:23;;;;;;;;;;;120.61;114.10;;;;;;2669279;76;20437;-89
2023/09/10 14:29:53;;;;;;;;;;;120.61;114.10;;;;;;2669580;76;20947;-89
2023/09/10 14:33:22;;;;;;;;;;;120.61;114.10;;;;;;2670413;76;20490;-89
2023/09/10 14:36:50;;;;;;;;;;;120.61;114.10;;;;;;2669786;76;20417;-89
2023/09/10 14:40:20;;;;;;;;;;;120.61;114.10;;;;;;2669918;76;20693;-89
2023/09/10 14:43:52;;;;;;;;;;;120.61;114.10;;;;;;2670298;76;20446;-89
2023/09/10 14:47:25;;;;;;;;;;;120.61;114.10;;;;;;2669449;76;20478;-89
2023/09/10 14:51:02;;;;;;;;;;;120.61;114.10;;;;;;2669332;76;20435;-89
2023/09/10 14:54:30;;;;;;;;;;;120.61;114.10;;;;;;2669072;76;20539;-90
2023/09/10 14:58:01;;;;;;;;;;;120.61;114.10;;;;;;2668661;76;20476;-89
2023/09/10 15:01:38;;;;;;;;;;;120.61;114.10;;;;;;2669481;76;20422;-90
2023/09/10 15:05:01;;;;;;;;;;;120.61;114.10;;;;;;2668735;76;20472;-89
2023/09/10 15:08:33;;;;;;;;;;;120.61;114.10;;;;;;2670212;76;20497;-89
2023/09/10 15:12:01;;;;;;;;;;;120.61;114.10;;;;;;2670462;76;20443;-89
2023/09/10 15:15:31;;;;;;;;;;;120.61;114.10;;;;;;2669449;76;20338;-89
2023/09/10 15:19:02;;;;;;;;;;;120.61;114.10;;;;;;2669181;76;20454;-88
2023/09/10 15:22:33;;;;;;;;;;;120.61;114.10;;;;;;2668864;76;20671;-88
2023/09/10 15:26:01;;;;;;;;;;;120.61;114.10;;;;;;2667620;76;20448;-89
2023/09/10 15:29:35;;;;;;;;;;;120.61;114.10;;;;;;2668792;76;20441;-90
2023/09/10 15:33:03;;;;;;;;;;;120.61;114.10;;;;;;2670535;76;20484;-89
2023/09/10 15:36:32;;;;;;;;;;;120.61;114.10;;;;;;2670338;76;20462;-89
2023/09/10 15:40:06;;;;;;;;;;;120.61;114.10;;;;;;2670321;76;20448;-89
2023/09/10 15:43:37;;;;;;;;;;;120.61;114.10;;;;;;2668830;76;20331;-89
2023/09/10 15:47:11;;;;;;;;;;;120.61;114.10;;;;;;2669743;76;20425;-89
2023/09/10 15:50:39;;;;;;;;;;;120.61;114.10;;;;;;2671372;76;20331;-90
2023/09/10 15:54:11;;;;;;;;;;;120.61;114.10;;;;;;2671167;76;20538;-89
2023/09/10 15:57:42;;;;;;;;;;;120.61;114.10;;;;;;2670662;76;20464;-89
2023/09/10 16:01:15;;;;;;;;;;;120.61;114.10;;;;;;2671520;76;20418;-90
2023/09/10 16:04:43;;;;;;;;;;;120.61;114.10;;;;;;2672066;76;20458;-89
2023/09/10 16:08:12;;;;;;;;;;;120.61;114.10;;;;;;2668638;76;20420;-89
2023/09/10 16:11:40;;;;;;;;;;;120.61;114.10;;;;;;2670669;76;20458;-89
2023/09/10 16:15:08;;;;;;;;;;;120.61;114.10;;;;;;2669774;76;20445;-89
2023/09/10 16:18:39;;;;;;;;;;;120.61;114.10;;;;;;2671656;76;21058;-89
2023/09/10 16:22:12;;;;;;;;;;;120.61;114.10;;;;;;2671659;76;20331;-90
2023/09/10 16:25:44;;;;;;;;;;;120.61;114.10;;;;;;2671007;76;20311;-88
2023/09/10 16:29:11;;;;;;;;;;;120.61;114.10;;;;;;2671432;76;20386;-89
2023/09/10 16:32:40;;;;;;;;;;;120.61;114.10;;;;;;2670399;76;20478;-88
2023/09/10 16:36:10;;;;;;;;;;;120.61;114.10;;;;;;2670955;76;20441;-89
2023/09/10 16:39:38;;;;;;;;;;;120.61;114.10;;;;;;2670608;76;20500;-89
2023/09/10 16:43:09;;;;;;;;;;;120.61;114.10;;;;;;2670737;76;20442;-89
2023/09/10 16:46:46;;;;;;;;;;;120.61;114.10;;;;;;2670334;76;20502;-89
2023/09/10 16:50:11;;;;;;;;;;;120.61;114.10;;;;;;2670190;76;20454;-89
2023/09/10 16:53:39;;;;;;;;;;;120.61;114.10;;;;;;2671115;76;20768;-88
2023/09/10 16:57:14;;;;;;;;;;;120.61;114.10;;;;;;2670422;76;20427;-89
2023/09/10 17:00:48;;;;;;;;;;;120.61;114.10;;;;;;2671116;76;20462;-89
2023/09/10 17:04:15;;;;;;;;;;;120.61;114.10;;;;;;2670323;76;20430;-89
2023/09/10 17:07:43;;;;;;;;;;;120.61;114.10;;;;;;2669590;76;20469;-89
2023/09/10 17:11:12;;;;;;;;;;;120.61;114.10;;;;;;2670117;76;20422;-89
2023/09/10 17:14:41;;;;;;;;;;;120.61;114.10;;;;;;2670008;76;20460;-89
2023/09/10 17:18:12;;;;;;;;;;;120.61;114.10;;;;;;2670868;76;20445;-89
2023/09/10 17:21:42;;;;;;;;;;;120.61;114.10;;;;;;2671503;76;20467;-88
2023/09/10 17:25:11;;;;;;;;;;;120.61;114.10;;;;;;2669004;76;20485;-88
2023/09/10 17:28:42;;;;;;;;;;;120.61;114.10;;;;;;2670085;76;20472;-88
2023/09/10 17:32:17;;;;;;;;;;;120.61;114.10;;;;;;2669172;76;20507;-86
2023/09/10 17:35:50;;;;;;;;;;;120.61;114.10;;;;;;2668841;76;20438;-89
2023/09/10 17:39:21;;;;;;;;;;;120.61;114.10;;;;;;2669432;76;20440;-89
2023/09/10 17:42:49;;;;;;;;;;;120.61;114.10;;;;;;2669255;76;20465;-87
2023/09/10 17:46:25;;;;;;;;;;;120.61;114.10;;;;;;2669406;76;20451;-90
2023/09/10 17:49:57;;;;;;;;;;;120.61;114.10;;;;;;2668767;76;20465;-89
2023/09/10 17:53:30;;;;;;;;;;;120.61;114.10;;;;;;2670119;76;20445;-88
2023/09/10 17:56:58;;;;;;;;;;;120.61;114.10;;;;;;2670720;76;20476;-88
2023/09/10 18:00:26;;;;;;;;;;;120.61;114.10;;;;;;2670223;76;20473;-88
2023/09/10 18:04:01;;;;;;;;;;;120.61;114.10;;;;;;2670569;76;20474;-88
2023/09/10 18:07:29;;;;;;;;;;;120.61;114.10;;;;;;2670384;76;21269;-88
2023/09/10 18:11:06;;;;;;;;;;;120.61;114.10;;;;;;2670101;76;20460;-88
2023/09/10 18:14:40;;;;;;;;;;;120.61;114.10;;;;;;2669768;76;20430;-88
2023/09/10 18:18:08;;;;;;;;;;;120.61;114.10;;;;;;2669231;76;20810;-88
2023/09/10 18:21:37;;;;;;;;;;;120.61;114.10;;;;;;2668107;76;20485;-88
2023/09/10 18:25:05;;;;;;;;;;;120.61;114.10;;;;;;2668628;76;20412;-89
2023/09/10 18:28:33;;;;;;;;;;;120.61;114.10;;;;;;2668407;76;20444;-89
2023/09/10 18:32:01;;;;;;;;;;;120.61;114.10;;;;;;2669100;76;20428;-89
2023/09/10 18:35:30;;;;;;;;;;;120.61;114.10;;;;;;2669508;76;20482;-90
2023/09/10 18:39:03;;;;;;;;;;;120.61;114.10;;;;;;2669895;76;20486;-91
2023/09/10 18:42:31;;;;;;;;;;;120.61;114.10;;;;;;2669587;76;20483;-90
2023/09/10 18:46:02;;;;;;;;;;;120.61;114.10;;;;;;2670596;76;20423;-92
2023/09/10 18:49:33;;;;;;;;;;;120.61;114.10;;;;;;2671484;76;20478;-91
2023/09/10 18:53:15;;;;;;;;;;;120.61;114.10;;;;;;2669601;76;20333;-92
2023/09/10 18:56:53;;;;;;;;;;;120.61;114.10;;;;;;2670876;76;20493;-92
2023/09/10 19:00:21;;;;;;;;;;;120.61;114.10;;;;;;2671256;76;20463;-91
2023/09/10 19:04:01;;;;;;;;;;;120.61;114.10;;;;;;2670422;75;20458;-94
2023/09/10 19:07:32;;;;;;;;;;;120.61;114.10;;;;;;2669333;76;20478;-95
2023/09/10 19:11:11;;;;;;;;;;;120.61;114.10;;;;;;2669752;76;20495;-93
2023/09/10 19:14:47;;;;;;;;;;;120.61;114.10;;;;;;2670009;76;20441;-94
2023/09/10 19:18:18;;;;;;;;;;;120.61;114.10;;;;;;2667782;76;20523;-94
2023/09/10 19:25:49;;;;;;;;;;;120.61;114.10;;;;;;2667771;76;20549;-89
2023/09/10 19:29:12;;;;;;;;;;;120.61;114.10;;;;;;2669004;76;20445;-89
2023/09/10 19:32:41;;;;;;;;;;;120.61;114.10;;;;;;2668486;76;20498;-89
2023/09/10 19:36:17;;;;;;;;;;;120.61;114.10;;;;;;2667873;76;20470;-93
2023/09/10 19:39:57;;;;;;;;;;;120.61;114.10;;;;;;2669711;76;20342;-93
2023/09/10 19:47:17;;;;;;;;;;;120.61;114.10;;;;;;2668644;76;20927;-92
2023/09/10 19:50:58;;;;;;;;;;;120.61;114.10;;;;;;2671507;76;20419;-94